Time;durP1;ratioP1;P1;durP2;ratioP2;P2;SDS_P1;SDS_P2;PMS_P1;PMS_P2;Temp;Humidity;BMP_temperature;BMP_pressure;BME280_temperature;BME280_humidity;BME280_pressure;Samples;Min_cycle;Max_cycle;Signal;HPM_P1;HPM_P2
2023/11/25 00:03:59;;;;;;;0.77;0.30;;;;;;;4.62;73.29;99371.03;10249509;28;20553;-64
2023/11/25 00:09:00;;;;;;;1.95;0.32;;;;;;;4.67;73.27;99361.00;10249278;28;20058;-62
2023/11/25 00:14:01;;;;;;;0.50;0.20;;;;;;;4.53;72.33;99364.63;10258534;28;20511;-63
2023/11/25 00:19:05;;;;;;;1.23;0.20;;;;;;;4.46;73.24;99366.84;10252727;28;20639;-62
2023/11/25 00:24:09;;;;;;;1.10;0.40;;;;;;;4.72;73.35;99380.81;10238990;28;20541;-62
2023/11/25 00:29:10;;;;;;;1.55;0.20;;;;;;;4.47;72.13;99384.31;10242453;28;20066;-63
2023/11/25 00:34:12;;;;;;;1.65;0.40;;;;;;;4.43;73.36;99388.13;10229107;28;20054;-63
2023/11/25 00:39:15;;;;;;;2.70;0.40;;;;;;;4.51;72.90;99401.63;10249391;28;20057;-62
2023/11/25 00:44:16;;;;;;;3.20;0.60;;;;;;;4.68;72.49;99408.34;10249995;28;20133;-63
2023/11/25 00:49:17;;;;;;;3.30;0.40;;;;;;;4.76;72.74;99421.03;10215907;28;20807;-64
2023/11/25 00:54:20;;;;;;;1.95;0.50;;;;;;;4.81;72.36;99424.16;10232084;28;20057;-63
2023/11/25 00:59:21;;;;;;;2.55;0.70;;;;;;;4.45;71.59;99422.28;10252107;28;20678;-63
2023/11/25 01:04:24;;;;;;;1.60;0.70;;;;;;;4.20;72.34;99437.13;10251898;28;20061;-63
2023/11/25 01:09:30;;;;;;;3.42;0.70;;;;;;;4.23;73.13;99445.66;10241753;28;20047;-63
2023/11/25 01:14:31;;;;;;;1.88;0.60;;;;;;;4.17;72.62;99446.06;10227721;28;20661;-63
2023/11/25 01:19:33;;;;;;;2.15;0.68;;;;;;;4.16;73.45;99457.56;10255835;28;20142;-64
2023/11/25 01:24:35;;;;;;;2.40;0.60;;;;;;;4.34;73.04;99467.78;10253870;28;20050;-63
2023/11/25 01:29:36;;;;;;;3.13;0.77;;;;;;;4.23;72.97;99477.28;10225113;28;20061;-63
2023/11/25 01:34:38;;;;;;;3.55;1.00;;;;;;;4.29;72.54;99465.47;10200704;28;20137;-63
2023/11/25 01:39:41;;;;;;;3.28;0.93;;;;;;;4.42;71.73;99490.06;10252272;28;21243;-64
2023/11/25 01:44:43;;;;;;;2.75;0.57;;;;;;;4.29;73.24;99480.44;10248155;28;20544;-62
2023/11/25 01:49:44;;;;;;;5.10;0.93;;;;;;;4.25;71.31;99496.47;10219407;28;20153;-62
2023/11/25 01:54:46;;;;;;;5.80;1.20;;;;;;;4.29;72.04;99496.25;10253463;28;20066;-63
2023/11/25 01:59:48;;;;;;;5.38;1.13;;;;;;;4.48;71.63;99511.69;10235319;28;20112;-63
2023/11/25 02:04:50;;;;;;;2.22;0.82;;;;;;;4.23;71.02;99516.81;10248692;28;20150;-63
2023/11/25 02:09:51;;;;;;;6.22;1.15;;;;;;;4.40;71.74;99530.66;10235209;28;20069;-63
2023/11/25 02:14:55;;;;;;;2.42;1.00;;;;;;;4.62;70.21;99540.59;10233661;28;20133;-64
2023/11/25 02:20:00;;;;;;;4.07;0.70;;;;;;;4.64;71.03;99549.25;10227309;28;20047;-63
2023/11/25 02:25:04;;;;;;;2.75;1.35;;;;;;;4.62;70.38;99545.03;10224870;28;20062;-62
2023/11/25 02:30:06;;;;;;;8.80;1.40;;;;;;;4.72;70.36;99546.09;10221373;28;20047;-61
2023/11/25 02:35:08;;;;;;;3.78;1.20;;;;;;;4.78;69.28;99549.16;10253031;28;20051;-62
2023/11/25 02:40:12;;;;;;;2.67;1.00;;;;;;;4.83;69.75;99556.75;10175336;28;20538;-62
2023/11/25 02:45:19;;;;;;;5.75;1.20;;;;;;;4.73;70.01;99574.16;10227211;28;20046;-63
2023/11/25 02:50:21;;;;;;;4.38;1.50;;;;;;;4.73;70.33;99580.28;10247086;28;20046;-61
2023/11/25 02:55:22;;;;;;;6.00;1.88;;;;;;;4.75;69.15;99573.09;10249289;28;20745;-62
2023/11/25 03:00:29;;;;;;;4.60;1.05;;;;;;;4.76;70.22;99587.13;10250318;28;20059;-63
2023/11/25 03:05:31;;;;;;;2.07;0.80;;;;;;;4.77;70.01;99580.91;10209868;28;20122;-63
2023/11/25 03:10:33;;;;;;;4.03;1.05;;;;;;;4.60;69.14;99559.13;10224274;28;20058;-63
2023/11/25 03:15:35;;;;;;;4.53;0.82;;;;;;;4.71;69.11;99570.75;10181011;28;20532;-64
2023/11/25 03:20:40;;;;;;;4.57;0.85;;;;;;;4.82;69.05;99583.22;10239565;28;20059;-63
2023/11/25 03:25:42;;;;;;;2.10;0.55;;;;;;;4.75;68.99;99574.91;10247359;28;20062;-63
2023/11/25 03:30:46;;;;;;;3.17;0.80;;;;;;;4.88;68.01;99581.03;10234405;28;20081;-63
2023/11/25 03:35:47;;;;;;;4.85;0.77;;;;;;;4.69;69.17;99562.97;10240339;28;20422;-62
2023/11/25 03:40:51;;;;;;;5.00;1.00;;;;;;;5.06;68.50;99591.25;10254411;28;20046;-62
2023/11/25 03:45:52;;;;;;;5.57;0.90;;;;;;;5.12;68.40;99581.16;10240291;28;20532;-63
2023/11/25 03:50:54;;;;;;;3.15;0.90;;;;;;;5.18;68.89;99587.81;10246388;28;20054;-62
2023/11/25 03:55:56;;;;;;;2.30;0.70;;;;;;;4.98;67.90;99577.75;10246745;28;20055;-62
2023/11/25 04:00:57;;;;;;;3.33;1.00;;;;;;;5.01;68.36;99590.75;10247850;28;20043;-63
2023/11/25 04:05:58;;;;;;;4.40;1.50;;;;;;;5.02;68.89;99595.09;10225312;28;20478;-62
2023/11/25 04:11:00;;;;;;;3.60;1.02;;;;;;;4.87;69.02;99563.50;10218352;28;20055;-63
2023/11/25 04:16:05;;;;;;;6.40;1.05;;;;;;;5.17;68.79;99607.22;10249743;28;20059;-62
2023/11/25 04:21:06;;;;;;;3.90;0.68;;;;;;;5.05;69.20;99615.97;10255226;28;20149;-62
2023/11/25 04:26:08;;;;;;;3.40;1.30;;;;;;;5.11;70.59;99636.66;10243876;28;20070;-62
2023/11/25 04:31:10;;;;;;;3.97;1.45;;;;;;;4.89;70.28;99595.88;10250731;28;20063;-64
2023/11/25 04:36:14;;;;;;;4.50;1.40;;;;;;;4.82;70.60;99594.63;10231649;28;20062;-64
2023/11/25 04:41:22;;;;;;;5.97;1.40;;;;;;;5.09;71.42;99639.41;10258345;28;20097;-63
2023/11/25 04:46:24;;;;;;;2.65;1.65;;;;;;;5.17;71.57;99640.69;10253416;28;20117;-64
2023/11/25 04:51:25;;;;;;;3.33;1.65;;;;;;;5.22;71.09;99644.69;10258392;28;20058;-62
2023/11/25 04:56:27;;;;;;;5.32;2.40;;;;;;;5.23;71.02;99637.63;10228341;28;20133;-62
2023/11/25 05:01:29;;;;;;;7.95;2.35;;;;;;;5.14;71.55;99641.72;10246916;28;20061;-62
2023/11/25 05:06:32;;;;;;;3.75;2.53;;;;;;;5.08;72.05;99623.69;10241797;28;20114;-63
2023/11/25 05:11:33;;;;;;;4.72;2.88;;;;;;;5.05;72.32;99616.81;10252480;28;20519;-63
2023/11/25 05:16:35;;;;;;;7.10;3.33;;;;;;;4.96;72.48;99607.72;10256052;28;20051;-62
2023/11/25 05:21:37;;;;;;;3.92;2.22;;;;;;;4.87;73.09;99603.06;10251455;28;20153;-63
2023/11/25 05:26:38;;;;;;;4.07;2.75;;;;;;;4.88;73.57;99599.50;10252173;28;20054;-61
2023/11/25 05:31:43;;;;;;;5.30;2.88;;;;;;;4.96;73.80;99606.88;10239658;28;20070;-61
2023/11/25 05:36:44;;;;;;;5.40;2.97;;;;;;;5.03;73.78;99612.56;10245336;28;20057;-62
2023/11/25 05:41:49;;;;;;;6.00;4.25;;;;;;;4.93;74.61;99612.38;10252968;28;20055;-62
2023/11/25 05:46:54;;;;;;;6.65;3.70;;;;;;;4.99;75.24;99608.47;10214861;28;20126;-63
2023/11/25 05:51:56;;;;;;;6.93;4.50;;;;;;;4.93;75.27;99607.94;10250301;28;20058;-63
2023/11/25 05:57:01;;;;;;;7.68;4.53;;;;;;;4.93;74.62;99609.72;10229996;28;20079;-61
2023/11/25 06:02:03;;;;;;;6.45;4.57;;;;;;;4.87;75.06;99613.63;10218454;28;20062;-64
2023/11/25 06:07:04;;;;;;;8.90;4.78;;;;;;;4.87;74.88;99618.06;10209861;28;20070;-63
2023/11/25 06:12:09;;;;;;;8.35;4.65;;;;;;;4.85;75.04;99594.44;10195702;28;20133;-62
2023/11/25 06:17:10;;;;;;;9.30;4.97;;;;;;;4.91;74.78;99604.56;10222090;28;20051;-62
2023/11/25 06:22:12;;;;;;;7.80;4.80;;;;;;;4.86;74.54;99604.00;10223000;28;20123;-62
2023/11/25 06:27:17;;;;;;;9.30;5.45;;;;;;;4.81;74.96;99614.03;10255560;28;20721;-64
2023/11/25 06:32:19;;;;;;;9.23;5.32;;;;;;;4.89;75.38;99610.88;10247209;28;20054;-63
2023/11/25 06:37:21;;;;;;;7.70;5.38;;;;;;;4.85;75.43;99602.34;10245617;28;20046;-61
2023/11/25 06:42:25;;;;;;;8.95;4.82;;;;;;;4.89;75.48;99593.25;10219805;28;20142;-63
2023/11/25 06:47:26;;;;;;;8.38;4.47;;;;;;;4.91;75.25;99593.19;10201305;28;20056;-63
2023/11/25 06:52:28;;;;;;;16.08;5.18;;;;;;;4.92;75.27;99598.34;10239543;28;20417;-63
2023/11/25 06:57:30;;;;;;;9.60;4.55;;;;;;;4.83;75.40;99604.22;10232709;28;20074;-63
2023/11/25 07:02:33;;;;;;;14.55;5.47;;;;;;;4.71;75.75;99605.03;10244363;28;20051;-62
2023/11/25 07:07:37;;;;;;;12.27;4.53;;;;;;;4.66;76.30;99615.06;10246172;28;20720;-62
2023/11/25 07:12:38;;;;;;;8.50;4.60;;;;;;;4.87;75.84;99631.25;10224083;28;21109;-63
2023/11/25 07:17:42;;;;;;;9.70;4.28;;;;;;;4.94;75.80;99635.16;10235766;28;20697;-63
2023/11/25 07:22:44;;;;;;;7.78;3.78;;;;;;;4.92;76.03;99627.38;10244653;28;20046;-63
2023/11/25 07:27:47;;;;;;;10.73;4.30;;;;;;;5.00;75.49;99623.34;10251309;28;20047;-63
2023/11/25 07:32:49;;;;;;;8.27;3.90;;;;;;;5.17;75.25;99625.69;10233743;28;20070;-63
2023/11/25 07:37:51;;;;;;;10.98;3.75;;;;;;;5.18;74.77;99632.66;10220012;28;20063;-61
2023/11/25 07:42:52;;;;;;;9.48;3.55;;;;;;;5.24;75.00;99634.88;10229245;28;20141;-63
2023/11/25 07:47:54;;;;;;;10.50;4.30;;;;;;;5.20;75.37;99646.59;10225639;28;20147;-63
2023/11/25 07:52:58;;;;;;;8.48;3.65;;;;;;;5.12;75.18;99633.09;10239841;28;20067;-63
2023/11/25 07:58:00;;;;;;;8.30;3.80;;;;;;;5.15;75.49;99632.88;10226577;28;20133;-65
2023/11/25 08:03:02;;;;;;;13.02;3.88;;;;;;;5.31;76.66;99630.88;10251723;28;20486;-65
2023/11/25 08:08:05;;;;;;;9.38;3.90;;;;;;;5.45;75.65;99634.34;10239178;28;20055;-63
2023/11/25 08:13:07;;;;;;;6.63;3.63;;;;;;;5.51;75.74;99641.00;10178424;28;20514;-63
2023/11/25 08:18:09;;;;;;;9.27;3.78;;;;;;;5.52;75.64;99646.16;10236918;28;20063;-63
2023/11/25 08:23:10;;;;;;;8.98;4.32;;;;;;;5.62;75.34;99649.88;10221132;28;20051;-63
2023/11/25 08:28:12;;;;;;;15.50;4.30;;;;;;;5.55;75.77;99645.97;10211741;28;20134;-64
2023/11/25 08:33:14;;;;;;;7.43;3.60;;;;;;;5.61;77.73;99636.78;10231917;28;20054;-65
2023/11/25 08:38:16;;;;;;;12.27;4.35;;;;;;;5.53;76.46;99636.47;10227621;28;20057;-65
2023/11/25 08:43:17;;;;;;;10.82;3.05;;;;;;;5.53;75.95;99645.22;10251162;28;20078;-66
2023/11/25 08:48:19;;;;;;;7.10;2.97;;;;;;;5.53;76.39;99631.19;10199192;28;20137;-67
2023/11/25 08:53:23;;;;;;;6.95;2.30;;;;;;;5.38;75.66;99630.47;10247751;28;20626;-66
2023/11/25 08:58:25;;;;;;;7.63;2.30;;;;;;;5.25;76.09;99611.97;10244073;28;20532;-67
2023/11/25 09:03:27;;;;;;;13.30;3.40;;;;;;;5.06;76.55;99613.22;10245622;28;20578;-68
2023/11/25 09:08:29;;;;;;;7.47;2.35;;;;;;;5.16;77.28;99631.06;10235234;28;20125;-66
2023/11/25 09:13:32;;;;;;;6.65;2.25;;;;;;;5.09;77.77;99628.03;10245899;28;20066;-66
2023/11/25 09:18:34;;;;;;;9.80;2.95;;;;;;;5.23;78.24;99635.81;10237504;28;20051;-65
2023/11/25 09:23:36;;;;;;;6.35;2.80;;;;;;;5.24;77.93;99641.94;10248184;28;20831;-66
2023/11/25 09:28:37;;;;;;;8.57;2.22;;;;;;;5.26;78.24;99643.53;10222326;28;20244;-65
2023/11/25 09:33:39;;;;;;;8.48;3.83;;;;;;;5.28;77.96;99638.16;10215864;28;20793;-66
2023/11/25 09:38:41;;;;;;;7.50;2.40;;;;;;;5.20;79.77;99630.75;10247847;28;20802;-66
2023/11/25 09:43:44;;;;;;;8.43;2.15;;;;;;;5.25;81.30;99628.63;10218488;28;20548;-66
2023/11/25 09:48:45;;;;;;;6.70;5.05;;;;;;;5.27;82.92;99616.19;10216888;28;20051;-66
2023/11/25 09:53:54;;;;;;;9.43;3.75;;;;;;;5.63;82.41;99605.81;10222702;28;20047;-66
2023/11/25 09:58:56;;;;;;;8.50;2.20;;;;;;;6.05;81.08;99616.13;10237072;28;20606;-66
2023/11/25 10:04:01;;;;;;;8.43;2.03;;;;;;;5.83;80.19;99607.06;10249291;28;20047;-65
2023/11/25 10:09:02;;;;;;;7.68;2.15;;;;;;;5.86;80.36;99612.13;10244869;28;20050;-65
2023/11/25 10:14:08;;;;;;;6.95;2.33;;;;;;;5.95;79.68;99613.28;10213361;28;20219;-66
2023/11/25 10:19:19;;;;;;;7.72;2.20;;;;;;;6.41;78.03;99611.75;10221913;28;20053;-66
2023/11/25 10:24:21;;;;;;;6.22;2.13;;;;;;;6.35;77.58;99600.69;10216804;28;20047;-66
2023/11/25 10:29:24;;;;;;;6.00;2.15;;;;;;;6.37;78.05;99590.84;10217728;28;20595;-65
2023/11/25 10:34:30;;;;;;;7.13;1.98;;;;;;;5.95;77.50;99561.28;10245152;28;20054;-65
2023/11/25 10:39:35;;;;;;;9.73;2.05;;;;;;;6.21;78.78;99586.78;10237380;28;20726;-64
2023/11/25 10:44:39;;;;;;;7.90;2.20;;;;;;;6.19;78.65;99563.13;10231251;28;20463;-65
2023/11/25 10:49:45;;;;;;;9.70;2.17;;;;;;;6.47;76.90;99564.56;10228408;28;20061;-65
2023/11/25 10:54:49;;;;;;;5.38;1.85;;;;;;;6.59;77.94;99554.88;10241303;28;20047;-64
2023/11/25 10:59:57;;;;;;;6.80;1.98;;;;;;;6.35;76.89;99555.75;10245419;28;21161;-66
2023/11/25 11:05:06;;;;;;;7.95;1.98;;;;;;;6.24;76.57;99558.31;10246325;28;20734;-65
2023/11/25 11:10:11;;;;;;;8.20;2.03;;;;;;;6.11;77.09;99549.63;10240794;28;20043;-65
2023/11/25 11:15:15;;;;;;;10.20;2.50;;;;;;;6.17;77.59;99538.59;10208398;28;20279;-65
2023/11/25 11:20:18;;;;;;;5.57;2.17;;;;;;;6.30;78.03;99538.53;10230994;28;20055;-65
2023/11/25 11:25:35;;;;;;;6.90;1.95;;;;;;;6.28;78.82;99517.50;10239320;28;20819;-65
2023/11/25 11:31:22;;;;;;;4.57;1.60;;;;;;;6.26;79.07;99511.50;10234377;28;20054;-62
2023/11/25 11:36:31;;;;;;;7.50;1.90;;;;;;;6.33;79.40;99507.41;10224919;28;20046;-65
2023/11/25 11:41:32;;;;;;;6.85;1.48;;;;;;;6.27;78.47;99499.94;10249664;28;20169;-64
2023/11/25 11:46:42;;;;;;;4.57;1.50;;;;;;;6.36;80.37;99499.28;10233778;28;20046;-63
2023/11/25 11:52:02;;;;;;;6.10;1.50;;;;;;;6.32;79.53;99481.97;10203411;28;20137;-62
2023/11/25 11:57:05;;;;;;;5.20;1.50;;;;;;;6.24;79.71;99494.91;10221197;28;20648;-64
2023/11/25 12:02:06;;;;;;;6.55;1.35;;;;;;;6.26;81.87;99495.66;10213450;28;20059;-65
2023/11/25 12:07:08;;;;;;;3.53;1.65;;;;;;;6.32;81.87;99495.19;10244781;28;20533;-66
2023/11/25 12:12:12;;;;;;;6.57;1.77;;;;;;;6.49;81.47;99499.19;10204322;28;20133;-65
2023/11/25 12:17:14;;;;;;;7.93;2.45;;;;;;;6.40;83.03;99491.13;10243584;28;20066;-64
2023/11/25 12:22:20;;;;;;;3.80;1.63;;;;;;;6.47;83.53;99490.53;10243911;28;20082;-66
2023/11/25 12:27:25;;;;;;;3.42;1.27;;;;;;;6.51;83.55;99496.44;10237539;28;20670;-65
2023/11/25 12:32:26;;;;;;;4.07;1.15;;;;;;;6.50;83.97;99492.09;10222808;28;20054;-65
2023/11/25 12:37:28;;;;;;;3.85;1.20;;;;;;;6.60;84.41;99485.16;10246132;28;20066;-65
2023/11/25 12:42:29;;;;;;;4.50;1.75;;;;;;;6.60;83.83;99474.56;10246693;28;20484;-65
2023/11/25 12:47:30;;;;;;;3.35;1.10;;;;;;;6.59;85.13;99480.84;10213127;28;20114;-66
2023/11/25 12:52:32;;;;;;;3.88;2.00;;;;;;;6.49;84.53;99450.78;10235274;28;20055;-64
2023/11/25 12:57:33;;;;;;;4.05;2.17;;;;;;;6.59;85.03;99457.03;10225897;28;20090;-65
2023/11/25 13:02:43;;;;;;;2.45;1.58;;;;;;;6.59;85.54;99467.63;10234445;28;21612;-64
2023/11/25 13:07:45;;;;;;;2.97;1.23;;;;;;;6.60;85.61;99457.88;10220907;28;20727;-64
2023/11/25 13:12:47;;;;;;;2.65;1.65;;;;;;;6.51;84.58;99433.81;10247291;28;20055;-65
2023/11/25 13:17:48;;;;;;;2.92;1.00;;;;;;;6.65;84.47;99445.13;10247819;28;20535;-64
2023/11/25 13:22:50;;;;;;;3.15;1.48;;;;;;;6.67;83.71;99438.78;10249730;28;20055;-64
2023/11/25 13:27:51;;;;;;;4.75;1.60;;;;;;;6.60;83.76;99416.41;10239780;28;20058;-65
2023/11/25 13:32:55;;;;;;;3.50;1.92;;;;;;;6.65;82.86;99424.84;10246203;28;20058;-64
2023/11/25 13:38:00;;;;;;;4.20;1.92;;;;;;;6.78;82.18;99435.28;10217186;28;20043;-65
2023/11/25 13:43:04;;;;;;;4.20;1.70;;;;;;;6.64;82.07;99412.56;10192119;28;20504;-63
2023/11/25 13:48:05;;;;;;;2.33;1.50;;;;;;;6.74;82.01;99423.28;10247046;28;20920;-64
2023/11/25 13:53:08;;;;;;;5.07;1.90;;;;;;;6.75;82.61;99418.81;10223679;28;20055;-63
2023/11/25 13:58:09;;;;;;;2.60;1.65;;;;;;;6.73;82.06;99411.84;10240299;28;20055;-64
2023/11/25 14:03:13;;;;;;;4.30;1.90;;;;;;;6.85;82.24;99417.16;10201057;28;20047;-63
2023/11/25 14:08:18;;;;;;;3.78;1.83;;;;;;;6.90;81.95;99413.19;10249050;28;20529;-64
2023/11/25 14:13:21;;;;;;;4.32;1.98;;;;;;;6.81;80.37;99402.47;10241147;28;20102;-65
2023/11/25 14:18:23;;;;;;;5.70;2.78;;;;;;;6.78;80.09;99403.53;10241712;28;20101;-63
2023/11/25 14:23:25;;;;;;;4.85;1.40;;;;;;;6.73;80.71;99384.56;10245079;28;20671;-63
2023/11/25 14:28:26;;;;;;;3.22;1.33;;;;;;;6.84;80.81;99402.22;10232805;28;20061;-64
2023/11/25 14:33:31;;;;;;;5.00;1.73;;;;;;;6.78;80.89;99408.00;10212254;28;20059;-64
2023/11/25 14:38:33;;;;;;;2.63;1.00;;;;;;;6.78;81.58;99408.84;10243632;28;20412;-63
2023/11/25 14:43:34;;;;;;;4.40;1.35;;;;;;;6.87;81.72;99408.09;10232675;28;20067;-62
2023/11/25 14:48:35;;;;;;;2.53;0.80;;;;;;;6.80;80.78;99416.66;10245437;28;20524;-63
2023/11/25 14:53:41;;;;;;;2.75;1.13;;;;;;;6.43;81.79;99409.78;10241313;28;20063;-64
2023/11/25 14:58:42;;;;;;;3.92;1.50;;;;;;;6.48;82.44;99401.47;10212430;28;20059;-64
2023/11/25 15:03:44;;;;;;;2.53;1.23;;;;;;;6.68;82.65;99407.88;10229707;28;20049;-62
2023/11/25 15:08:45;;;;;;;1.92;1.08;;;;;;;6.65;82.40;99394.88;10222036;28;20046;-64
2023/11/25 15:13:47;;;;;;;2.38;1.00;;;;;;;6.73;82.09;99401.25;10247008;28;20692;-64
2023/11/25 15:18:51;;;;;;;3.05;1.30;;;;;;;6.77;81.50;99401.88;10218344;28;20518;-64
2023/11/25 15:23:56;;;;;;;3.90;1.80;;;;;;;6.70;82.01;99401.50;10245008;28;20051;-65
2023/11/25 15:29:00;;;;;;;2.47;1.10;;;;;;;6.79;81.22;99401.75;10229691;28;20214;-65
2023/11/25 15:34:01;;;;;;;3.67;0.90;;;;;;;6.73;81.21;99405.72;10230368;28;20537;-65
2023/11/25 15:39:06;;;;;;;3.83;1.00;;;;;;;6.72;82.00;99394.31;10246077;28;20055;-63
2023/11/25 15:44:09;;;;;;;4.07;1.10;;;;;;;6.55;81.89;99382.38;10217164;28;20055;-66
2023/11/25 15:49:12;;;;;;;1.90;0.90;;;;;;;6.72;82.23;99399.59;10242598;28;20050;-64
2023/11/25 15:54:13;;;;;;;2.75;1.50;;;;;;;6.83;82.21;99400.53;10239856;28;20047;-64
2023/11/25 15:59:14;;;;;;;3.13;1.60;;;;;;;6.76;82.47;99415.22;10245881;28;20146;-65
2023/11/25 16:04:18;;;;;;;1.95;1.08;;;;;;;6.66;83.30;99426.50;10222535;28;20132;-64
2023/11/25 16:09:19;;;;;;;2.58;1.00;;;;;;;6.72;83.13;99431.34;10251740;28;20042;-65
2023/11/25 16:14:21;;;;;;;1.55;1.00;;;;;;;6.66;83.47;99426.50;10198081;28;20228;-63
2023/11/25 16:19:22;;;;;;;3.03;1.13;;;;;;;6.59;83.80;99422.66;10248600;28;20204;-64
2023/11/25 16:24:25;;;;;;;1.75;0.73;;;;;;;6.51;84.07;99430.34;10230920;28;20101;-66
2023/11/25 16:29:29;;;;;;;3.70;1.00;;;;;;;6.37;84.38;99421.66;10243397;28;20059;-65
2023/11/25 16:34:31;;;;;;;1.38;0.88;;;;;;;6.39;85.16;99439.22;10247486;28;20416;-67
2023/11/25 16:39:32;;;;;;;1.77;0.90;;;;;;;6.50;84.39;99433.94;10195724;28;20632;-66
2023/11/25 16:44:34;;;;;;;1.08;0.85;;;;;;;6.55;84.12;99431.78;10249579;28;20064;-66
2023/11/25 16:49:36;;;;;;;1.15;0.70;;;;;;;6.46;84.21;99435.13;10253180;28;20043;-67
2023/11/25 16:54:43;;;;;;;1.05;0.73;;;;;;;6.37;84.68;99416.38;10246053;28;20046;-65
2023/11/25 16:59:45;;;;;;;3.90;1.90;;;;;;;6.54;86.51;99422.16;10226738;28;20548;-66
2023/11/25 17:04:50;;;;;;;0.90;0.70;;;;;;;6.63;86.26;99432.03;10196417;28;20405;-66
2023/11/25 17:09:51;;;;;;;;;;;;;;;6.80;84.77;99440.47;10229585;28;20062;-67
2023/11/25 17:14:53;;;;;;;3.80;0.90;;;;;;;6.87;83.98;99457.53;10242093;28;20619;-71
2023/11/25 17:19:56;;;;;;;2.95;0.90;;;;;;;6.59;83.52;99430.59;10235982;28;20055;-67
2023/11/25 17:24:57;;;;;;;2.92;1.98;;;;;;;6.83;84.53;99477.25;10221758;28;20119;-66
2023/11/25 17:30:02;;;;;;;2.67;1.48;;;;;;;6.73;83.28;99459.44;10206358;28;20185;-65
2023/11/25 17:35:05;;;;;;;4.45;1.70;;;;;;;6.66;83.89;99468.81;10248529;28;20055;-65
2023/11/25 17:40:09;;;;;;;2.65;1.35;;;;;;;6.71;83.89;99464.03;10228360;28;20695;-66
2023/11/25 17:45:11;;;;;;;2.25;1.20;;;;;;;6.78;82.94;99471.50;10215569;28;20177;-65
2023/11/25 17:50:17;;;;;;;4.68;1.92;;;;;;;6.84;82.70;99481.59;10234682;28;20066;-64
2023/11/25 17:55:19;;;;;;;5.53;2.13;;;;;;;6.83;83.15;99474.59;10235448;28;20149;-65
2023/11/25 18:00:20;;;;;;;4.40;1.60;;;;;;;6.93;82.21;99491.47;10218027;28;20054;-66
2023/11/25 18:05:22;;;;;;;1.88;1.25;;;;;;;6.97;82.26;99497.38;10247655;28;20076;-64
2023/11/25 18:10:27;;;;;;;2.85;1.58;;;;;;;6.93;82.72;99507.34;10226629;28;20547;-67
2023/11/25 18:15:29;;;;;;;4.68;1.42;;;;;;;6.85;83.99;99509.75;10243586;28;20141;-66
2023/11/25 18:20:32;;;;;;;1.55;0.90;;;;;;;6.36;82.25;99503.72;10236752;28;20524;-65
2023/11/25 18:25:34;;;;;;;0.70;0.30;;;;;;;6.42;82.03;99527.03;10220887;28;20065;-65
2023/11/25 18:30:38;;;;;;;1.95;0.40;;;;;;;6.12;81.55;99538.09;10224515;28;20047;-65
2023/11/25 18:35:43;;;;;;;1.13;0.30;;;;;;;6.09;82.53;99548.88;10230204;28;20095;-65
2023/11/25 18:40:45;;;;;;;0.85;0.40;;;;;;;5.77;82.60;99512.44;10226982;28;20051;-65
2023/11/25 18:45:47;;;;;;;2.45;1.35;;;;;;;5.95;82.97;99555.16;10236493;28;20059;-65
2023/11/25 18:50:49;;;;;;;2.03;0.70;;;;;;;6.00;83.17;99555.69;10231446;28;20051;-65
2023/11/25 18:55:52;;;;;;;1.10;0.60;;;;;;;6.07;83.17;99558.75;10205322;28;20051;-66
2023/11/25 19:00:54;;;;;;;1.10;0.50;;;;;;;6.03;82.54;99551.97;10240568;28;21193;-66
2023/11/25 19:05:56;;;;;;;2.17;1.08;;;;;;;6.29;82.14;99548.28;10196286;28;20058;-65
2023/11/25 19:11:01;;;;;;;3.47;0.90;;;;;;;6.26;80.48;99543.22;10221766;28;20066;-64
2023/11/25 19:16:03;;;;;;;1.90;0.70;;;;;;;6.34;80.35;99556.69;10236313;28;20203;-65
2023/11/25 19:21:10;;;;;;;3.65;2.13;;;;;;;6.54;79.68;99571.09;10232160;28;20142;-65
2023/11/25 19:26:15;;;;;;;3.13;0.75;;;;;;;6.66;79.16;99598.41;10212370;28;20229;-65
2023/11/25 19:31:16;;;;;;;1.25;0.73;;;;;;;6.45;79.56;99602.66;10238119;28;20046;-63
2023/11/25 19:36:18;;;;;;;1.85;0.73;;;;;;;6.52;78.65;99611.81;10243403;28;20061;-65
2023/11/25 19:41:21;;;;;;;3.08;1.10;;;;;;;6.63;78.58;99629.53;10218800;28;20594;-65
2023/11/25 19:46:22;;;;;;;1.77;1.08;;;;;;;6.44;78.29;99645.91;10213750;28;20078;-64
2023/11/25 19:51:24;;;;;;;1.73;0.80;;;;;;;6.64;78.58;99650.59;10218501;28;20074;-65
2023/11/25 19:56:27;;;;;;;2.28;0.77;;;;;;;6.52;78.16;99643.56;10251077;28;20118;-64
2023/11/25 20:01:28;;;;;;;2.67;0.80;;;;;;;6.59;77.81;99662.44;10212131;28;20047;-65
2023/11/25 20:06:31;;;;;;;2.50;0.80;;;;;;;6.64;76.76;99679.69;10250992;28;20066;-64
2023/11/25 20:11:33;;;;;;;2.75;0.70;;;;;;;6.58;77.01;99681.94;10238548;28;20082;-66
2023/11/25 20:16:35;;;;;;;1.98;0.70;;;;;;;6.67;76.47;99692.66;10250144;28;20125;-63
2023/11/25 20:21:37;;;;;;;2.13;0.80;;;;;;;6.59;76.73;99687.13;10234873;28;20077;-64
2023/11/25 20:26:38;;;;;;;3.88;1.85;;;;;;;6.52;77.03;99712.31;10229666;28;20062;-66
2023/11/25 20:31:40;;;;;;;2.78;1.48;;;;;;;6.53;76.82;99706.03;10246552;28;20154;-65
2023/11/25 20:36:43;;;;;;;2.05;1.02;;;;;;;6.57;76.87;99723.38;10250892;28;20728;-63
2023/11/25 20:41:45;;;;;;;3.03;1.02;;;;;;;6.55;77.05;99728.78;10240098;28;20061;-65
2023/11/25 20:46:47;;;;;;;2.08;0.95;;;;;;;6.47;76.89;99738.22;10240787;28;20181;-63
2023/11/25 20:51:49;;;;;;;1.35;0.90;;;;;;;6.52;76.79;99741.41;10238279;28;20058;-66
2023/11/25 20:56:52;;;;;;;1.92;0.77;;;;;;;6.44;76.57;99743.72;10184411;28;20064;-64
2023/11/25 21:01:54;;;;;;;2.85;0.90;;;;;;;6.15;77.17;99759.84;10239375;28;20075;-64
2023/11/25 21:06:57;;;;;;;2.33;0.88;;;;;;;6.24;77.73;99767.13;10214131;28;20051;-67
2023/11/25 21:11:59;;;;;;;2.70;1.08;;;;;;;6.18;76.81;99749.06;10246884;28;20080;-64
2023/11/25 21:17:03;;;;;;;2.13;1.10;;;;;;;6.21;76.69;99769.16;10213624;28;20142;-64
2023/11/25 21:22:05;;;;;;;4.47;1.40;;;;;;;6.06;76.67;99771.91;10232258;28;20097;-65
2023/11/25 21:27:08;;;;;;;3.22;1.05;;;;;;;6.01;77.33;99780.16;10256954;28;20043;-66
2023/11/25 21:32:10;;;;;;;2.67;0.90;;;;;;;6.07;76.61;99785.97;10249280;28;20733;-63
2023/11/25 21:37:13;;;;;;;3.00;0.80;;;;;;;5.97;76.96;99791.88;10247152;28;20049;-64
2023/11/25 21:42:16;;;;;;;2.72;0.68;;;;;;;6.03;76.73;99800.34;10234029;28;20055;-64
2023/11/25 21:47:21;;;;;;;2.47;0.95;;;;;;;5.97;76.77;99799.81;10223953;28;20055;-64
2023/11/25 21:52:25;;;;;;;3.22;0.90;;;;;;;6.08;76.00;99806.16;10249110;28;20144;-63
2023/11/25 21:57:27;;;;;;;3.03;0.90;;;;;;;6.03;75.34;99818.84;10230747;28;20047;-64
2023/11/25 22:02:29;;;;;;;2.60;1.15;;;;;;;5.97;75.07;99820.09;10232798;28;20051;-65
2023/11/25 22:07:35;;;;;;;3.53;1.10;;;;;;;5.76;76.04;99827.66;10241849;28;20103;-64
2023/11/25 22:12:39;;;;;;;3.05;1.25;;;;;;;5.89;75.92;99828.53;10247759;28;20485;-64
2023/11/25 22:17:41;;;;;;;4.03;1.63;;;;;;;5.95;75.91;99832.56;10247070;28;20650;-64
2023/11/25 22:22:45;;;;;;;2.53;1.25;;;;;;;5.77;75.94;99832.00;10245163;28;20084;-63
2023/11/25 22:27:46;;;;;;;2.90;1.23;;;;;;;5.77;75.77;99829.34;10223696;28;20050;-64
2023/11/25 22:32:48;;;;;;;4.00;1.67;;;;;;;5.69;76.25;99831.66;10205027;28;20492;-64
2023/11/25 22:37:51;;;;;;;2.60;1.45;;;;;;;5.57;76.32;99813.06;10218112;28;20066;-65
2023/11/25 22:42:52;;;;;;;4.50;1.55;;;;;;;5.41;76.29;99801.81;10244210;28;20123;-64
2023/11/25 22:47:55;;;;;;;2.00;1.33;;;;;;;5.65;75.92;99837.13;10246771;28;20063;-64
2023/11/25 22:52:57;;;;;;;3.53;1.15;;;;;;;5.63;74.43;99841.69;10241877;28;20078;-65
2023/11/25 22:58:00;;;;;;;3.20;1.25;;;;;;;5.64;74.37;99851.31;10241395;28;20055;-64
2023/11/25 23:03:04;;;;;;;2.83;1.25;;;;;;;5.28;75.16;99857.19;10234196;28;20058;-66
2023/11/25 23:08:06;;;;;;;3.45;1.23;;;;;;;5.32;75.57;99867.44;10244800;28;20166;-65
2023/11/25 23:13:09;;;;;;;2.70;1.50;;;;;;;5.42;75.65;99869.47;10229951;28;20134;-65
2023/11/25 23:18:11;;;;;;;3.38;1.60;;;;;;;5.54;75.46;99881.91;10206967;28;20651;-65
2023/11/25 23:23:13;;;;;;;2.75;1.95;;;;;;;5.53;75.07;99884.66;10225665;28;20042;-65
2023/11/25 23:28:16;;;;;;;3.30;1.85;;;;;;;5.43;75.04;99873.81;10234733;28;20059;-65
2023/11/25 23:33:18;;;;;;;4.82;2.30;;;;;;;5.55;75.50;99888.03;10198507;28;20047;-64
2023/11/25 23:38:19;;;;;;;2.47;1.73;;;;;;;5.55;75.71;99894.13;10246923;28;20050;-64
2023/11/25 23:43:21;;;;;;;4.07;1.40;;;;;;;5.43;76.68;99889.66;10227962;28;20054;-64
2023/11/25 23:48:23;;;;;;;1.70;1.50;;;;;;;5.32;77.50;99890.38;10231020;28;20116;-64